createdAt,value
2023-03-22T00:07:24.814Z,31.38
2023-03-22T00:17:47.833Z,30.25
2023-03-22T00:28:09.446Z,26.38
2023-03-22T00:38:42.633Z,30.05
2023-03-22T00:49:05.374Z,23.85
2023-03-22T00:59:29.009Z,25.15
2023-03-22T01:09:51.036Z,23.15
2023-03-22T01:20:14.592Z,26.88
2023-03-22T01:30:37.000Z,32.20
2023-03-22T01:41:00.419Z,27.60
2023-03-22T01:51:26.136Z,26.40
2023-03-22T02:02:02.882Z,29.52
2023-03-22T02:12:34.718Z,27.77
2023-03-22T02:23:22.432Z,24.73
2023-03-22T02:34:05.300Z,29.63
2023-03-22T02:44:36.595Z,39.85
2023-03-22T02:55:06.574Z,33.90
2023-03-22T03:05:33.473Z,30.00
2023-03-22T03:15:59.305Z,27.48
2023-03-22T03:36:54.530Z,42.23
2023-03-22T03:47:17.978Z,41.70
2023-03-22T03:57:40.130Z,38.60
2023-03-22T04:08:04.139Z,36.65
2023-03-22T04:18:29.707Z,41.22
2023-03-22T04:28:56.693Z,36.53
2023-03-22T04:39:19.736Z,41.15
2023-03-22T04:49:52.172Z,38.28
2023-03-22T05:00:15.365Z,37.88
2023-03-22T05:10:42.203Z,35.97
2023-03-22T05:21:06.806Z,41.97
2023-03-22T05:31:34.458Z,36.53
2023-03-22T05:41:57.245Z,50.85
2023-03-22T05:52:20.422Z,40.60
2023-03-22T06:03:03.710Z,40.47
2023-03-22T06:13:29.257Z,36.73
2023-03-22T06:23:50.878Z,34.22
2023-03-22T06:34:15.346Z,33.30
2023-03-22T06:44:37.610Z,34.92
2023-03-22T06:55:11.110Z,31.90
2023-03-22T07:05:33.200Z,27.85
2023-03-22T07:15:58.380Z,26.48
2023-03-22T07:26:43.192Z,23.00
2023-03-22T07:37:11.988Z,23.42
2023-03-22T07:47:41.060Z,23.95
2023-03-22T07:58:13.997Z,19.75
2023-03-22T08:08:37.950Z,20.98
2023-03-22T08:19:01.567Z,17.38
2023-03-22T08:29:25.830Z,21.05
2023-03-22T08:39:49.168Z,14.73
2023-03-22T08:50:34.916Z,13.13
2023-03-22T09:01:14.292Z,12.65
2023-03-22T09:11:44.792Z,18.67
2023-03-22T09:22:08.679Z,16.25
2023-03-22T09:32:41.700Z,10.90
2023-03-22T09:43:10.376Z,12.60
2023-03-22T09:53:33.952Z,11.90
2023-03-22T10:04:12.074Z,16.00
2023-03-22T10:14:39.154Z,9.77
2023-03-22T10:25:03.761Z,8.32
2023-03-22T10:35:26.360Z,11.37
2023-03-22T10:45:50.850Z,16.48
2023-03-22T10:56:15.616Z,11.23
2023-03-22T11:06:44.256Z,10.55
2023-03-22T11:17:12.600Z,9.18
2023-03-22T11:27:36.412Z,10.00
2023-03-22T11:37:59.168Z,8.20
2023-03-22T11:48:24.850Z,8.57
2023-03-22T11:58:56.473Z,9.15
2023-03-22T12:09:27.040Z,7.10
2023-03-22T12:19:56.297Z,7.18
2023-03-22T12:30:22.233Z,9.77
2023-03-22T12:40:44.515Z,6.63
2023-03-22T12:51:09.038Z,5.03
2023-03-22T13:01:36.191Z,6.60
2023-03-22T13:12:30.625Z,8.20
2023-03-22T13:23:25.102Z,4.07
2023-03-22T13:33:54.512Z,7.45
2023-03-22T13:44:29.853Z,4.93
2023-03-22T13:54:57.192Z,4.40
2023-03-22T14:05:22.183Z,7.45
2023-03-22T14:15:50.079Z,4.20
